Time;durP1;ratioP1;P1;durP2;ratioP2;P2;SDS_P1;SDS_P2;PMS_P1;PMS_P2;Temp;Humidity;BMP_temperature;BMP_pressure;BME280_temperature;BME280_humidity;BME280_pressure;Samples;Min_cycle;Max_cycle;Signal;HPM_P1;HPM_P2
2022/09/29 00:00:58;;;;;;;1.73;1.63;;;22.20;66.10;;;;;;5024758;28;20463;-80
2022/09/29 00:03:29;;;;;;;1.90;1.70;;;22.20;66.10;;;;;;5029266;28;20519;-83
2022/09/29 00:05:59;;;;;;;1.93;1.83;;;22.20;66.10;;;;;;5031106;28;20441;-84
2022/09/29 00:08:29;;;;;;;2.10;2.00;;;22.20;66.10;;;;;;5030622;28;20462;-84
2022/09/29 00:10:57;;;;;;;1.80;1.70;;;22.20;66.10;;;;;;5027897;28;20992;-84
2022/09/29 00:13:26;;;;;;;1.73;1.63;;;22.20;66.10;;;;;;5037633;28;20449;-84
2022/09/29 00:15:58;;;;;;;2.00;1.90;;;22.20;66.10;;;;;;5036163;28;20478;-84
2022/09/29 00:18:26;;;;;;;2.20;2.00;;;22.20;66.10;;;;;;5036425;28;20534;-84
2022/09/29 00:21:01;;;;;;;1.73;1.63;;;22.20;66.10;;;;;;5032308;28;20458;-83
2022/09/29 00:23:30;;;;;;;2.17;1.97;;;22.20;66.10;;;;;;5034976;28;20514;-83
2022/09/29 00:26:04;;;;;;;1.57;1.47;;;22.20;66.10;;;;;;5035615;28;20445;-82
2022/09/29 00:28:33;;;;;;;1.90;1.80;;;22.20;66.10;;;;;;5031598;28;20464;-85
2022/09/29 00:31:03;;;;;;;1.63;1.53;;;22.20;66.10;;;;;;5031026;28;20480;-83
2022/09/29 00:33:31;;;;;;;1.80;1.70;;;22.20;66.10;;;;;;5034209;28;20537;-83
2022/09/29 00:36:04;;;;;;;1.67;1.57;;;22.20;66.10;;;;;;5035007;28;20449;-84
2022/09/29 00:38:33;;;;;;;1.73;1.53;;;22.20;66.10;;;;;;5034660;28;20442;-84
2022/09/29 00:41:01;;;;;;;1.70;1.60;;;22.20;66.10;;;;;;5027655;28;20454;-82
2022/09/29 00:43:54;;;;;;;1.80;1.50;;;22.20;66.10;;;;;;5031060;28;20441;-83
2022/09/29 00:46:38;;;;;;;2.50;1.63;;;22.20;66.10;;;;;;5031077;28;20794;-83
2022/09/29 00:49:13;;;;;;;1.97;1.87;;;22.10;66.10;;;;;;5034541;28;20456;-83
2022/09/29 00:51:48;;;;;;;1.50;1.40;;;22.10;66.10;;;;;;5034937;28;20498;-83
2022/09/29 00:54:17;;;;;;;2.83;1.57;;;22.10;66.10;;;;;;5035622;28;20456;-84
2022/09/29 00:56:46;;;;;;;1.57;1.47;;;22.10;66.10;;;;;;5035133;28;21138;-84
2022/09/29 00:59:21;;;;;;;1.90;1.80;;;22.10;66.10;;;;;;5031423;28;20476;-83
2022/09/29 01:01:49;;;;;;;1.77;1.67;;;22.10;66.10;;;;;;5034917;28;20452;-83
2022/09/29 01:04:21;;;;;;;1.93;1.83;;;22.10;66.10;;;;;;5035441;28;20449;-83
2022/09/29 01:06:54;;;;;;;1.90;1.70;;;22.10;66.10;;;;;;5029612;28;20469;-83
2022/09/29 01:09:26;;;;;;;1.80;1.20;;;22.10;66.10;;;;;;5033686;28;20460;-84
2022/09/29 01:11:57;;;;;;;1.30;1.30;;;22.10;66.10;;;;;;5033586;28;21563;-83
2022/09/29 01:14:27;;;;;;;1.90;1.30;;;22.10;66.10;;;;;;5033918;28;20817;-83
2022/09/29 01:19:59;;;;;;;1.50;1.40;;;22.10;66.10;;;;;;5034974;23;20559;-87
2022/09/29 01:22:59;;;;;;;1.93;1.80;;;22.10;66.10;;;;;;4949635;28;20830;-87
2022/09/29 01:26:08;;;;;;;2.30;1.60;;;22.10;66.10;;;;;;4956298;28;20446;-87
2022/09/29 01:29:02;;;;;;;1.57;1.47;;;22.10;66.10;;;;;;4933220;28;20485;-88
2022/09/29 01:31:37;;;;;;;1.40;1.30;;;22.10;66.10;;;;;;4954256;29;20442;-86
2022/09/29 01:34:10;;;;;;;1.80;1.67;;;22.10;66.10;;;;;;4953035;28;20463;-88
2022/09/29 01:36:48;;;;;;;1.57;1.47;;;22.10;66.10;;;;;;4955744;28;20531;-87
2022/09/29 01:39:25;;;;;;;1.63;1.53;;;22.10;66.10;;;;;;4942315;28;20439;-88
2022/09/29 01:41:57;;;;;;;1.97;1.70;;;22.10;66.00;;;;;;4953545;29;20964;-87
2022/09/29 01:44:32;;;;;;;3.03;1.30;;;22.10;66.00;;;;;;4955943;28;20487;-87
2022/09/29 01:47:05;;;;;;;1.83;1.60;;;22.10;66.00;;;;;;4956959;28;20901;-87
2022/09/29 01:49:38;;;;;;;1.47;1.37;;;22.10;66.00;;;;;;4956725;28;20469;-88
2022/09/29 01:52:10;;;;;;;1.20;1.20;;;22.10;66.00;;;;;;4956381;28;20480;-87
2022/09/29 01:54:44;;;;;;;1.27;1.17;;;22.10;66.00;;;;;;4956867;29;20477;-88
2022/09/29 01:57:17;;;;;;;1.20;1.10;;;22.10;66.00;;;;;;4956203;28;20445;-87
2022/09/29 01:59:51;;;;;;;1.60;1.50;;;22.10;66.00;;;;;;4971639;28;20544;-88
2022/09/29 02:02:30;;;;;;;1.03;1.03;;;22.10;66.00;;;;;;4962161;29;20449;-88
2022/09/29 02:05:02;;;;;;;1.57;1.47;;;22.10;66.00;;;;;;4943942;28;20849;-88
2022/09/29 02:07:37;;;;;;;1.03;1.03;;;22.10;66.00;;;;;;4953526;29;20451;-87
2022/09/29 02:10:10;;;;;;;2.40;1.60;;;22.10;66.00;;;;;;4956319;28;20437;-88
2022/09/29 02:12:41;;;;;;;1.30;1.20;;;22.10;66.00;;;;;;4956314;28;20560;-88
2022/09/29 02:15:17;;;;;;;1.07;1.07;;;22.10;66.00;;;;;;4955694;28;20554;-88
2022/09/29 02:17:50;;;;;;;1.40;1.30;;;22.10;66.00;;;;;;4955945;28;20510;-88
2022/09/29 02:20:19;;;;;;;1.20;1.10;;;22.10;66.00;;;;;;4948269;28;20498;-88
2022/09/29 02:22:48;;;;;;;1.10;1.10;;;22.10;66.00;;;;;;4947879;29;20449;-88
2022/09/29 02:25:19;;;;;;;1.43;1.33;;;22.10;66.00;;;;;;4938376;28;20446;-87
2022/09/29 02:27:49;;;;;;;1.50;1.40;;;22.10;66.00;;;;;;4939683;29;20476;-87
2022/09/29 02:30:17;;;;;;;1.10;1.10;;;22.10;66.00;;;;;;4949861;28;20449;-87
2022/09/29 02:32:48;;;;;;;1.60;1.30;;;22.10;66.00;;;;;;4933080;28;20476;-87
2022/09/29 02:35:16;;;;;;;1.20;1.10;;;22.10;66.00;;;;;;4941578;29;20451;-85
2022/09/29 02:37:59;;;;;;;1.00;1.00;;;22.10;66.00;;;;;;4936730;29;21193;-87
2022/09/29 02:40:36;;;;;;;1.20;1.20;;;22.10;66.00;;;;;;4942088;29;20815;-87
2022/09/29 02:43:25;;;;;;;1.80;1.43;;;22.00;66.00;;;;;;4955559;28;20516;-88
2022/09/29 02:46:07;;;;;;;1.13;1.10;;;22.00;66.00;;;;;;4930401;29;20487;-87
2022/09/29 02:49:04;;;;;;;1.20;1.10;;;22.00;66.00;;;;;;4940704;29;20458;-88
2022/09/29 02:51:38;;;;;;;1.60;1.50;;;22.10;66.00;;;;;;4953399;29;20458;-87
2022/09/29 02:54:32;;;;;;;1.23;1.13;;;22.00;66.00;;;;;;4948135;28;20475;-88
2022/09/29 02:57:12;;;;;;;1.40;1.30;;;22.00;66.00;;;;;;4929521;29;20470;-87
2022/09/29 02:59:49;;;;;;;1.03;1.03;;;22.10;66.00;;;;;;4948390;29;20466;-87
2022/09/29 03:02:23;;;;;;;1.17;1.17;;;22.00;66.00;;;;;;4943553;29;20881;-87
2022/09/29 03:04:53;;;;;;;1.20;1.20;;;22.00;66.00;;;;;;4955484;28;20467;-87
2022/09/29 03:07:22;;;;;;;0.97;0.97;;;22.00;66.00;;;;;;4955436;29;20781;-87
2022/09/29 03:09:50;;;;;;;1.17;1.10;;;22.00;66.00;;;;;;4954702;29;20441;-86
2022/09/29 03:12:18;;;;;;;1.30;1.20;;;22.00;66.00;;;;;;4955263;28;20456;-87
2022/09/29 03:14:46;;;;;;;1.70;1.10;;;22.00;66.00;;;;;;4963472;28;20462;-87
2022/09/29 03:17:14;;;;;;;0.97;0.97;;;22.00;66.00;;;;;;4935630;29;20471;-87
2022/09/29 03:19:42;;;;;;;1.50;1.40;;;22.00;66.00;;;;;;4929436;29;21285;-86
2022/09/29 03:22:11;;;;;;;1.43;1.33;;;22.00;66.00;;;;;;4917053;29;20440;-86
2022/09/29 03:24:40;;;;;;;1.43;1.00;;;22.00;66.00;;;;;;4916953;29;20903;-85
2022/09/29 03:27:09;;;;;;;1.33;1.20;;;22.00;65.90;;;;;;4916976;29;20447;-87
2022/09/29 03:29:38;;;;;;;1.17;0.80;;;22.00;66.00;;;;;;4925071;29;20464;-87
2022/09/29 03:32:06;;;;;;;1.00;1.00;;;22.00;65.90;;;;;;4935862;29;20427;-87
2022/09/29 03:34:34;;;;;;;1.10;1.10;;;22.00;65.90;;;;;;4933443;29;20500;-87
2022/09/29 03:37:03;;;;;;;0.90;0.90;;;22.00;66.00;;;;;;4928949;29;20468;-87
2022/09/29 03:39:33;;;;;;;1.00;1.00;;;22.00;65.90;;;;;;4916387;29;20464;-87
2022/09/29 03:42:01;;;;;;;0.80;0.80;;;22.00;65.90;;;;;;4931104;29;20803;-87
2022/09/29 03:44:29;;;;;;;1.07;1.07;;;22.00;65.90;;;;;;4934225;29;20455;-87
2022/09/29 03:46:57;;;;;;;0.67;0.67;;;22.00;65.90;;;;;;4935705;29;20454;-87
2022/09/29 03:49:25;;;;;;;0.90;0.90;;;22.00;65.90;;;;;;4935919;29;20463;-87
2022/09/29 03:51:53;;;;;;;1.30;1.20;;;22.00;65.90;;;;;;4935398;29;20434;-87
2022/09/29 03:54:23;;;;;;;1.20;1.10;;;22.00;65.90;;;;;;4934931;29;20474;-87
2022/09/29 03:56:52;;;;;;;0.90;0.90;;;22.00;65.90;;;;;;4935295;29;20446;-86
2022/09/29 03:59:20;;;;;;;1.10;1.00;;;22.00;66.00;;;;;;4934854;29;20883;-87
2022/09/29 04:01:48;;;;;;;1.23;1.03;;;22.00;66.00;;;;;;4934602;29;20466;-88
2022/09/29 04:04:16;;;;;;;1.20;1.10;;;22.00;65.90;;;;;;4935064;29;20438;-87
2022/09/29 04:06:44;;;;;;;1.23;1.13;;;22.00;65.90;;;;;;4934835;29;20439;-86
2022/09/29 04:09:12;;;;;;;1.30;1.20;;;22.00;65.90;;;;;;4934677;29;20443;-85
2022/09/29 04:11:41;;;;;;;0.73;0.73;;;22.00;65.90;;;;;;4934398;29;20440;-87
2022/09/29 04:14:10;;;;;;;1.07;1.07;;;22.00;65.90;;;;;;4934391;29;20474;-87
2022/09/29 04:16:38;;;;;;;0.90;0.90;;;22.00;65.90;;;;;;4932158;29;20464;-87
2022/09/29 04:19:06;;;;;;;0.80;0.80;;;22.00;65.90;;;;;;4934092;29;20498;-87
2022/09/29 04:21:34;;;;;;;0.80;0.80;;;22.00;65.90;;;;;;4934393;29;20444;-87
2022/09/29 04:24:02;;;;;;;0.80;0.80;;;22.00;65.90;;;;;;4933763;29;20450;-84
2022/09/29 04:26:30;;;;;;;1.20;1.20;;;22.00;65.90;;;;;;4934087;29;20455;-87
2022/09/29 04:28:59;;;;;;;0.70;0.70;;;22.00;65.90;;;;;;4932866;29;20541;-87
2022/09/29 04:31:28;;;;;;;0.83;0.83;;;22.00;65.90;;;;;;4934509;29;20806;-90
2022/09/29 04:33:56;;;;;;;1.07;1.07;;;22.00;65.90;;;;;;4934508;29;20466;-87
2022/09/29 04:36:24;;;;;;;0.90;0.90;;;22.00;65.90;;;;;;4934590;29;20443;-86
2022/09/29 04:38:53;;;;;;;0.97;0.97;;;22.00;65.90;;;;;;4929890;29;20477;-86
2022/09/29 04:41:23;;;;;;;0.80;0.80;;;22.00;65.90;;;;;;4934186;29;20459;-86
2022/09/29 04:43:51;;;;;;;1.20;1.20;;;22.00;65.90;;;;;;4933248;29;20897;-86
2022/09/29 04:46:19;;;;;;;0.83;0.83;;;22.00;65.90;;;;;;4924431;29;20536;-86
2022/09/29 04:48:49;;;;;;;0.80;0.80;;;22.00;65.90;;;;;;4932348;29;20853;-88
2022/09/29 04:51:17;;;;;;;1.27;1.17;;;22.00;65.90;;;;;;4933358;29;20461;-86
2022/09/29 04:53:45;;;;;;;1.77;1.67;;;21.90;65.60;;;;;;4929821;29;20475;-86
2022/09/29 04:56:13;;;;;;;1.70;1.60;;;21.90;65.40;;;;;;4932556;29;20470;-85
2022/09/29 04:58:41;;;;;;;1.70;1.60;;;21.80;65.40;;;;;;4937180;29;20465;-86
2022/09/29 05:01:11;;;;;;;1.27;1.17;;;21.80;65.30;;;;;;4936880;29;20469;-88
2022/09/29 05:03:40;;;;;;;1.10;1.10;;;21.70;65.40;;;;;;4938402;29;20455;-88
2022/09/29 05:06:10;;;;;;;1.00;0.90;;;21.80;65.90;;;;;;4941545;29;20458;-86
2022/09/29 05:08:38;;;;;;;0.70;0.70;;;21.80;65.90;;;;;;4942267;29;20543;-90
2022/09/29 05:11:08;;;;;;;1.43;1.33;;;21.80;65.90;;;;;;4936346;29;20465;-86
2022/09/29 05:13:36;;;;;;;2.10;0.90;;;21.80;65.90;;;;;;4929352;29;20498;-82
2022/09/29 05:16:05;;;;;;;1.10;1.00;;;21.90;65.90;;;;;;4932794;29;20949;-84
2022/09/29 05:18:33;;;;;;;1.00;1.00;;;21.90;66.00;;;;;;4931537;29;20512;-88
2022/09/29 05:21:05;;;;;;;0.97;0.80;;;21.90;65.90;;;;;;4931926;29;20478;-86
2022/09/29 05:23:55;;;;;;;0.87;0.87;;;21.90;66.00;;;;;;4949397;29;20475;-79
2022/09/29 05:26:24;;;;;;;0.90;0.90;;;21.90;66.00;;;;;;4936885;29;20481;-85
2022/09/29 05:28:52;;;;;;;1.07;0.80;;;21.90;66.00;;;;;;4938692;29;20451;-87
2022/09/29 05:31:20;;;;;;;1.33;0.73;;;21.90;66.00;;;;;;4946336;28;20456;-89
2022/09/29 05:33:48;;;;;;;2.80;0.93;;;21.90;66.00;;;;;;4936671;29;20478;-84
2022/09/29 05:36:16;;;;;;;0.83;0.83;;;21.90;66.00;;;;;;4934746;29;20556;-84
2022/09/29 05:38:44;;;;;;;1.50;0.93;;;21.90;66.00;;;;;;4933452;29;20950;-84
2022/09/29 05:41:15;;;;;;;1.10;1.10;;;21.90;65.90;;;;;;4933631;29;20465;-84
2022/09/29 05:43:44;;;;;;;0.70;0.70;;;21.90;65.90;;;;;;4934305;29;20546;-84
2022/09/29 05:46:12;;;;;;;1.00;0.87;;;21.90;65.90;;;;;;4931559;29;20562;-84
2022/09/29 05:48:42;;;;;;;2.10;1.20;;;21.90;65.80;;;;;;4935905;29;20482;-85
2022/09/29 05:51:12;;;;;;;0.97;0.70;;;21.90;65.80;;;;;;4936634;29;20462;-84
2022/09/29 05:53:41;;;;;;;0.83;0.83;;;21.90;65.80;;;;;;4939823;29;20930;-90
2022/09/29 05:56:14;;;;;;;1.63;1.37;;;21.90;65.80;;;;;;4932381;29;20804;-87
2022/09/29 05:58:43;;;;;;;1.33;1.23;;;21.90;66.10;;;;;;4935196;29;20451;-88
2022/09/29 06:01:13;;;;;;;1.73;1.53;;;21.90;66.10;;;;;;4928555;29;20470;-85
2022/09/29 06:03:41;;;;;;;0.87;0.87;;;21.90;66.00;;;;;;4935320;29;20457;-84
2022/09/29 06:06:11;;;;;;;1.60;1.20;;;21.90;66.00;;;;;;4931626;29;20946;-84
2022/09/29 06:08:41;;;;;;;2.10;1.83;;;21.80;65.90;;;;;;4931745;29;20453;-83
2022/09/29 06:11:11;;;;;;;1.00;1.00;;;21.90;65.90;;;;;;4933625;29;20515;-83
2022/09/29 06:13:42;;;;;;;3.50;1.30;;;21.90;65.90;;;;;;4932010;29;20461;-84
2022/09/29 06:16:10;;;;;;;2.17;1.20;;;21.90;65.90;;;;;;4932989;29;20511;-84
2022/09/29 06:18:39;;;;;;;2.13;0.97;;;21.90;65.90;;;;;;4935164;29;20577;-83
2022/09/29 06:21:09;;;;;;;1.43;1.33;;;21.90;65.90;;;;;;4926186;29;20463;-83
2022/09/29 06:23:37;;;;;;;1.77;1.20;;;21.90;65.90;;;;;;4930860;29;20456;-82
2022/09/29 06:26:07;;;;;;;1.63;1.27;;;21.90;65.80;;;;;;4931459;29;20458;-83
2022/09/29 06:28:35;;;;;;;1.20;1.20;;;21.90;65.80;;;;;;4934181;29;20454;-83
2022/09/29 06:31:07;;;;;;;1.37;1.10;;;21.90;65.80;;;;;;4932331;29;20451;-82
2022/09/29 06:33:36;;;;;;;1.20;1.10;;;21.90;65.70;;;;;;4934712;29;20807;-85
2022/09/29 06:38:56;;;;;;;1.20;1.10;;;21.90;65.70;;;;;;4934860;29;20892;-83
2022/09/29 06:41:26;;;;;;;0.97;0.97;;;21.90;65.60;;;;;;4934924;29;20479;-83
2022/09/29 06:43:54;;;;;;;1.47;1.00;;;21.90;65.60;;;;;;4935028;29;20920;-82
2022/09/29 06:46:25;;;;;;;4.53;1.43;;;21.90;65.60;;;;;;4932341;29;20446;-83
2022/09/29 06:48:53;;;;;;;1.40;1.30;;;21.90;65.60;;;;;;4935015;29;20457;-83
2022/09/29 06:51:23;;;;;;;1.37;1.10;;;21.90;65.60;;;;;;4932767;29;20921;-83
2022/09/29 06:54:02;;;;;;;1.00;1.00;;;21.90;65.60;;;;;;4934282;29;20476;-82
2022/09/29 06:56:38;;;;;;;1.40;1.30;;;21.90;65.50;;;;;;4933650;29;20485;-83
2022/09/29 06:59:07;;;;;;;1.47;1.20;;;22.00;65.50;;;;;;4934047;29;20473;-83
2022/09/29 07:01:36;;;;;;;1.53;1.30;;;22.00;65.50;;;;;;4930920;29;20454;-83
2022/09/29 07:04:04;;;;;;;1.10;1.00;;;21.90;65.50;;;;;;4932072;29;20470;-83
2022/09/29 07:06:34;;;;;;;1.30;1.20;;;22.00;65.50;;;;;;4935201;29;20459;-83
2022/09/29 07:09:02;;;;;;;1.13;1.10;;;22.00;65.50;;;;;;4931619;29;20474;-83
2022/09/29 07:11:30;;;;;;;1.90;1.47;;;22.00;65.40;;;;;;4934447;29;21040;-82
2022/09/29 07:13:58;;;;;;;1.53;1.13;;;22.00;65.40;;;;;;4935148;29;20450;-83
2022/09/29 07:16:26;;;;;;;1.00;1.00;;;22.00;65.40;;;;;;4934175;29;20506;-82
2022/09/29 07:18:56;;;;;;;1.30;1.20;;;22.00;65.40;;;;;;4933777;29;20508;-83
2022/09/29 07:21:24;;;;;;;1.23;1.17;;;22.00;65.40;;;;;;4928427;29;20471;-83
2022/09/29 07:23:52;;;;;;;1.10;1.00;;;22.00;65.30;;;;;;4933905;29;20947;-83
2022/09/29 07:26:21;;;;;;;1.27;1.17;;;22.00;65.30;;;;;;4933055;29;20462;-82
2022/09/29 07:28:49;;;;;;;1.73;1.30;;;22.00;65.30;;;;;;4923035;29;20554;-82
2022/09/29 07:31:19;;;;;;;1.90;1.20;;;22.00;65.30;;;;;;4936109;28;20468;-83
2022/09/29 07:33:49;;;;;;;1.00;0.90;;;22.00;65.30;;;;;;4934032;29;20449;-83
2022/09/29 07:36:20;;;;;;;1.70;1.23;;;22.00;65.30;;;;;;4937694;29;20490;-82
2022/09/29 07:38:49;;;;;;;1.40;1.10;;;22.00;65.30;;;;;;4933785;29;20454;-82
2022/09/29 07:41:20;;;;;;;2.73;1.20;;;22.00;65.30;;;;;;4933765;29;20466;-82
2022/09/29 07:43:48;;;;;;;1.63;1.53;;;22.00;65.30;;;;;;4934470;29;20455;-82
2022/09/29 07:46:16;;;;;;;0.90;0.90;;;22.00;65.30;;;;;;4932780;29;20458;-82
2022/09/29 07:48:45;;;;;;;1.03;1.03;;;22.00;65.30;;;;;;4936858;29;20441;-82
2022/09/29 07:51:15;;;;;;;1.50;1.40;;;22.00;65.30;;;;;;4934656;29;20466;-82
2022/09/29 07:53:45;;;;;;;1.30;1.20;;;22.00;65.30;;;;;;4933342;29;20442;-82
2022/09/29 07:56:17;;;;;;;1.30;1.17;;;22.00;65.30;;;;;;4933563;29;20491;-86
2022/09/29 07:58:46;;;;;;;1.77;1.20;;;22.00;65.30;;;;;;4935494;29;20489;-84
2022/09/29 08:01:14;;;;;;;1.00;1.00;;;22.00;65.30;;;;;;4931076;29;20455;-85
2022/09/29 08:03:48;;;;;;;2.50;1.63;;;22.00;65.20;;;;;;4962000;23;20497;-70
2022/09/29 08:06:16;;;;;;;1.57;1.47;;;22.00;65.50;;;;;;4954810;28;20427;-73
2022/09/29 08:08:46;;;;;;;2.80;1.10;;;22.00;65.80;;;;;;4963475;28;20447;-74
2022/09/29 08:11:28;;;;;;;1.53;1.27;;;22.10;66.00;;;;;;4973617;28;20473;-75
2022/09/29 08:14:00;;;;;;;1.27;1.17;;;22.10;66.10;;;;;;4973965;28;20790;-75
2022/09/29 08:16:29;;;;;;;1.40;1.30;;;22.20;66.20;;;;;;4972676;28;20472;-74
2022/09/29 08:18:57;;;;;;;1.80;1.23;;;22.20;66.30;;;;;;4961796;28;20486;-74
2022/09/29 08:21:30;;;;;;;1.27;1.23;;;22.30;66.40;;;;;;4943688;29;20455;-75
2022/09/29 08:24:01;;;;;;;1.13;1.00;;;22.30;66.40;;;;;;4935506;28;20431;-74
2022/09/29 08:26:31;;;;;;;1.40;1.30;;;22.40;66.30;;;;;;4942536;29;20474;-76
2022/09/29 08:29:11;;;;;;;2.10;1.33;;;22.40;66.20;;;;;;4966020;28;20956;-75
2022/09/29 08:31:44;;;;;;;1.30;1.27;;;22.50;66.40;;;;;;4955995;28;20496;-73
2022/09/29 08:34:13;;;;;;;1.60;1.50;;;22.50;66.40;;;;;;4952432;29;20517;-74
2022/09/29 08:36:42;;;;;;;2.60;1.40;;;22.50;66.30;;;;;;4952639;28;20490;-73
2022/09/29 08:39:12;;;;;;;1.63;1.53;;;22.50;66.30;;;;;;4945511;29;20442;-75
2022/09/29 08:41:50;;;;;;;1.43;1.37;;;22.60;66.30;;;;;;4947853;28;20459;-74
2022/09/29 08:44:27;;;;;;;0.97;0.97;;;22.60;66.20;;;;;;4950745;29;20444;-73
2022/09/29 08:47:15;;;;;;;1.97;1.80;;;22.60;66.20;;;;;;4942367;29;20482;-75
2022/09/29 08:49:47;;;;;;;2.60;1.50;;;22.60;66.20;;;;;;4954572;29;20457;-73
2022/09/29 08:52:19;;;;;;;1.50;1.33;;;22.70;66.20;;;;;;4957267;28;20474;-74
2022/09/29 08:54:52;;;;;;;1.47;1.37;;;22.70;66.10;;;;;;4949187;28;20949;-73
2022/09/29 08:57:21;;;;;;;2.57;1.20;;;22.70;66.10;;;;;;4950442;29;21482;-72
2022/09/29 08:59:54;;;;;;;1.43;1.33;;;22.70;66.00;;;;;;4944826;29;20465;-76
2022/09/29 09:02:55;;;;;;;1.60;1.10;;;22.80;66.00;;;;;;4955580;28;20758;-75
2022/09/29 09:05:39;;;;;;;2.60;2.40;;;22.80;66.00;;;;;;4948774;29;20465;-74
2022/09/29 09:08:18;;;;;;;1.37;1.27;;;22.80;65.90;;;;;;4948854;28;20488;-74
2022/09/29 09:10:55;;;;;;;1.30;1.20;;;22.80;65.90;;;;;;4949270;29;20470;-72
2022/09/29 09:13:42;;;;;;;1.53;1.43;;;22.80;65.90;;;;;;4948788;29;20439;-74
2022/09/29 09:16:21;;;;;;;1.30;1.20;;;22.80;65.90;;;;;;4944160;28;20841;-74
2022/09/29 09:19:10;;;;;;;1.40;1.30;;;22.80;65.90;;;;;;4943795;29;20458;-72
2022/09/29 09:21:41;;;;;;;2.10;1.57;;;22.80;66.00;;;;;;4956010;28;20200;-71
2022/09/29 09:24:17;;;;;;;1.23;1.13;;;22.80;65.90;;;;;;4953140;28;20805;-73
2022/09/29 09:26:53;;;;;;;1.63;1.50;;;22.90;65.80;;;;;;4952800;29;20455;-72
2022/09/29 09:29:28;;;;;;;3.23;1.57;;;22.90;65.70;;;;;;4951554;29;20451;-71
2022/09/29 09:32:07;;;;;;;1.57;1.47;;;22.90;65.70;;;;;;4949256;29;20810;-73
2022/09/29 09:34:38;;;;;;;1.37;1.13;;;22.90;65.70;;;;;;4955252;29;20473;-73
2022/09/29 09:37:17;;;;;;;1.30;1.20;;;23.00;65.60;;;;;;4953882;29;20479;-71
2022/09/29 09:39:48;;;;;;;1.37;1.23;;;23.00;65.60;;;;;;4954314;29;20450;-75
2022/09/29 09:42:23;;;;;;;4.77;1.50;;;23.00;65.60;;;;;;4954621;28;20526;-71
2022/09/29 09:44:56;;;;;;;1.40;1.20;;;23.00;65.60;;;;;;4953599;29;20456;-72
2022/09/29 09:47:26;;;;;;;1.23;1.20;;;23.00;65.50;;;;;;4955612;29;20444;-71
2022/09/29 09:49:58;;;;;;;1.17;1.17;;;23.00;65.50;;;;;;4956407;28;20459;-73
2022/09/29 09:52:33;;;;;;;1.60;1.50;;;23.10;65.50;;;;;;4956742;28;20478;-71
2022/09/29 09:55:05;;;;;;;1.00;1.00;;;23.10;65.50;;;;;;4956072;29;20444;-72
2022/09/29 09:58:01;;;;;;;4.60;2.00;;;23.10;65.30;;;;;;4955433;28;20473;-70
2022/09/29 10:00:36;;;;;;;1.20;1.10;;;23.10;65.30;;;;;;4952322;29;20466;-72
2022/09/29 10:03:06;;;;;;;1.30;1.20;;;23.10;65.30;;;;;;4955917;29;20566;-71
2022/09/29 10:05:37;;;;;;;1.00;0.90;;;23.10;65.20;;;;;;4954536;29;20455;-72
2022/09/29 10:08:09;;;;;;;1.47;1.37;;;23.10;65.20;;;;;;4953406;28;20475;-73
2022/09/29 10:10:41;;;;;;;1.63;1.53;;;23.20;65.20;;;;;;4951024;28;20443;-71
2022/09/29 10:13:28;;;;;;;1.77;1.10;;;23.20;65.20;;;;;;4948573;29;20459;-72
2022/09/29 10:15:59;;;;;;;1.40;1.30;;;23.20;65.00;;;;;;4955433;28;20478;-75
2022/09/29 10:18:35;;;;;;;2.20;1.10;;;23.30;65.00;;;;;;4954908;28;20490;-72
2022/09/29 10:21:03;;;;;;;1.63;1.13;;;23.30;64.90;;;;;;4954864;29;20442;-71
2022/09/29 10:23:33;;;;;;;1.77;1.20;;;23.30;64.80;;;;;;4949952;28;20811;-73
2022/09/29 10:26:15;;;;;;;2.20;1.60;;;23.40;64.80;;;;;;4954962;29;20440;-72
2022/09/29 10:28:49;;;;;;;1.10;1.10;;;23.40;64.70;;;;;;4952959;29;20440;-71
2022/09/29 10:31:25;;;;;;;1.27;1.17;;;23.40;64.60;;;;;;4952249;29;20492;-70
2022/09/29 10:33:57;;;;;;;1.50;1.17;;;23.40;64.60;;;;;;4944608;29;20928;-71
2022/09/29 10:36:28;;;;;;;1.10;1.10;;;23.50;64.40;;;;;;4953007;28;20479;-71
2022/09/29 10:38:57;;;;;;;2.37;2.13;;;23.50;64.30;;;;;;4950361;29;20492;-70
2022/09/29 10:41:51;;;;;;;1.33;1.33;;;23.50;64.20;;;;;;4953209;28;20458;-70
2022/09/29 10:44:21;;;;;;;1.47;1.00;;;23.50;64.10;;;;;;4947482;28;20964;-69
2022/09/29 10:46:53;;;;;;;1.20;1.10;;;23.50;64.10;;;;;;4952298;28;20485;-69
2022/09/29 10:49:23;;;;;;;1.47;1.37;;;23.50;64.30;;;;;;4953802;29;20470;-69
2022/09/29 10:52:01;;;;;;;1.37;1.10;;;23.50;64.30;;;;;;4952199;29;20436;-69
2022/09/29 10:54:34;;;;;;;1.37;1.20;;;23.50;64.30;;;;;;4949951;28;20965;-69
2022/09/29 10:57:14;;;;;;;1.10;1.10;;;23.50;64.20;;;;;;4945648;29;20986;-69
2022/09/29 10:59:49;;;;;;;1.40;1.30;;;23.60;64.20;;;;;;4953105;28;20467;-69
2022/09/29 11:02:24;;;;;;;1.00;1.00;;;23.60;64.20;;;;;;4947802;29;20528;-69
2022/09/29 11:04:56;;;;;;;1.20;1.20;;;23.70;64.10;;;;;;4950991;29;21036;-69
2022/09/29 11:07:24;;;;;;;2.53;2.17;;;23.70;64.00;;;;;;4952475;28;20910;-70
2022/09/29 11:09:53;;;;;;;2.20;1.10;;;23.80;63.90;;;;;;4952222;28;20463;-70
2022/09/29 11:12:34;;;;;;;1.63;1.20;;;23.80;63.80;;;;;;4951769;29;20451;-72
2022/09/29 11:15:23;;;;;;;1.40;1.10;;;23.80;63.80;;;;;;4944362;29;20470;-71
2022/09/29 11:17:52;;;;;;;1.50;1.20;;;23.80;63.80;;;;;;4950262;28;20472;-70
2022/09/29 11:20:25;;;;;;;1.30;1.27;;;23.80;63.60;;;;;;4950997;28;20852;-71
2022/09/29 11:23:15;;;;;;;2.20;1.00;;;23.80;63.40;;;;;;4950479;29;20808;-71
2022/09/29 11:26:15;;;;;;;1.37;1.20;;;23.80;63.40;;;;;;4945782;28;20471;-72
2022/09/29 11:29:13;;;;;;;1.20;1.10;;;23.80;63.40;;;;;;4941964;28;20464;-70
2022/09/29 11:32:07;;;;;;;1.37;1.27;;;23.70;63.40;;;;;;4949333;29;20930;-71
2022/09/29 11:35:12;;;;;;;3.70;1.37;;;23.70;63.40;;;;;;4950643;29;20448;-71
2022/09/29 11:37:58;;;;;;;2.63;1.50;;;23.70;63.50;;;;;;4950497;29;20810;-71
2022/09/29 11:40:38;;;;;;;0.90;0.90;;;23.60;63.60;;;;;;4947980;29;20471;-70
2022/09/29 11:43:18;;;;;;;1.30;1.20;;;23.60;63.60;;;;;;4949533;29;20459;-72
2022/09/29 11:45:56;;;;;;;3.07;1.23;;;23.60;63.50;;;;;;4948763;29;20466;-72
2022/09/29 11:48:46;;;;;;;4.53;4.13;;;23.70;63.70;;;;;;4952496;28;20455;-70
2022/09/29 11:51:28;;;;;;;2.10;1.47;;;23.70;63.70;;;;;;4952495;28;20462;-72
2022/09/29 11:54:12;;;;;;;2.00;1.03;;;23.80;63.60;;;;;;4947570;29;20462;-70
2022/09/29 11:56:50;;;;;;;1.80;1.60;;;24.00;63.50;;;;;;4950786;29;20464;-71
2022/09/29 11:59:44;;;;;;;2.20;1.30;;;24.20;63.00;;;;;;4948809;28;20452;-74
2022/09/29 12:02:32;;;;;;;1.97;1.10;;;24.40;62.50;;;;;;4942943;29;20462;-69
2022/09/29 12:05:10;;;;;;;2.37;1.20;;;24.50;62.20;;;;;;4951374;28;20515;-70
2022/09/29 12:07:45;;;;;;;2.33;1.37;;;24.60;62.00;;;;;;4951273;29;20454;-69
2022/09/29 12:10:29;;;;;;;3.30;1.37;;;24.50;61.90;;;;;;4951072;28;20452;-69
2022/09/29 12:13:09;;;;;;;1.70;1.40;;;24.40;62.00;;;;;;4950849;29;20453;-70
2022/09/29 12:15:47;;;;;;;1.50;1.40;;;24.30;62.10;;;;;;4952513;28;20522;-69
2022/09/29 12:18:20;;;;;;;7.80;2.30;;;24.20;62.20;;;;;;4951411;28;20506;-70
2022/09/29 12:20:53;;;;;;;1.83;1.40;;;24.10;62.30;;;;;;4948603;29;20785;-70
2022/09/29 12:23:25;;;;;;;1.63;1.53;;;24.00;62.40;;;;;;4949499;29;20457;-70
2022/09/29 12:25:59;;;;;;;2.80;1.67;;;24.00;62.60;;;;;;4949932;28;20447;-70
2022/09/29 12:28:34;;;;;;;1.90;1.73;;;24.00;62.70;;;;;;4952748;28;20464;-72
2022/09/29 12:31:09;;;;;;;1.27;1.17;;;23.90;62.70;;;;;;4950138;29;20447;-70
2022/09/29 12:33:41;;;;;;;2.40;1.80;;;23.90;62.80;;;;;;4951892;28;20810;-70
2022/09/29 12:39:16;;;;;;;3.17;2.23;;;23.90;62.90;;;;;;4933901;29;20998;-71
2022/09/29 12:41:49;;;;;;;1.50;1.40;;;23.80;62.90;;;;;;4944461;29;20450;-70
2022/09/29 12:44:25;;;;;;;1.90;1.43;;;23.80;63.00;;;;;;4943906;28;20461;-73
2022/09/29 12:46:59;;;;;;;2.00;1.60;;;23.80;63.00;;;;;;4949268;28;20454;-71
2022/09/29 12:49:38;;;;;;;1.47;1.37;;;23.70;63.00;;;;;;4945400;28;20470;-72
2022/09/29 12:52:16;;;;;;;4.23;1.43;;;23.70;63.00;;;;;;4950405;28;20448;-70
2022/09/29 12:54:50;;;;;;;1.27;1.17;;;23.70;63.10;;;;;;4943926;28;20939;-70
2022/09/29 12:57:22;;;;;;;2.70;1.50;;;23.70;63.10;;;;;;4951666;28;20449;-71
2022/09/29 12:59:57;;;;;;;1.47;1.27;;;23.60;63.20;;;;;;4950305;28;20475;-72
2022/09/29 13:02:43;;;;;;;1.60;1.27;;;23.60;63.20;;;;;;4943449;28;20512;-71
2022/09/29 13:05:33;;;;;;;1.17;1.17;;;23.60;63.30;;;;;;4946367;29;20463;-69
2022/09/29 13:08:28;;;;;;;2.90;1.30;;;23.60;63.30;;;;;;4950720;29;20962;-69
2022/09/29 13:11:12;;;;;;;1.90;1.57;;;23.50;63.30;;;;;;4952333;28;20451;-75
2022/09/29 13:14:03;;;;;;;2.57;1.47;;;23.50;63.30;;;;;;4946153;29;20455;-70
2022/09/29 13:16:45;;;;;;;1.23;1.17;;;23.50;63.40;;;;;;4938217;28;20471;-71
2022/09/29 13:19:40;;;;;;;1.43;1.27;;;23.50;63.40;;;;;;4949030;28;20573;-68
2022/09/29 13:22:40;;;;;;;1.20;1.20;;;23.50;63.60;;;;;;4950473;28;20487;-68
2022/09/29 13:25:21;;;;;;;2.03;1.40;;;23.50;63.70;;;;;;4952160;29;20455;-70
2022/09/29 13:27:51;;;;;;;2.00;1.20;;;23.60;63.70;;;;;;4954318;29;20462;-68
2022/09/29 13:30:21;;;;;;;1.43;1.30;;;23.60;63.70;;;;;;4951546;28;20461;-69